sensor_id;sensor_type;location;lat;lon;timestamp;P1;durP1;ratioP1;P2;durP2;ratioP2
23390;SDS011;11868;45.606;5.302;2022-11-15T00:01:06;7.20;;;5.65;;
23390;SDS011;11868;45.606;5.302;2022-11-15T00:03:35;8.68;;;5.60;;
23390;SDS011;11868;45.606;5.302;2022-11-15T00:06:01;8.25;;;5.20;;
23390;SDS011;11868;45.606;5.302;2022-11-15T00:08:31;8.50;;;5.28;;
23390;SDS011;11868;45.606;5.302;2022-11-15T00:13:23;11.68;;;5.75;;
23390;SDS011;11868;45.606;5.302;2022-11-15T00:15:48;8.18;;;5.82;;
23390;SDS011;11868;45.606;5.302;2022-11-15T00:18:14;10.30;;;6.05;;
23390;SDS011;11868;45.606;5.302;2022-11-15T00:20:40;8.82;;;6.30;;
23390;SDS011;11868;45.606;5.302;2022-11-15T00:23:06;8.23;;;6.47;;
23390;SDS011;11868;45.606;5.302;2022-11-15T00:25:32;9.50;;;6.70;;
23390;SDS011;11868;45.606;5.302;2022-11-15T00:27:57;11.98;;;6.90;;
23390;SDS011;11868;45.606;5.302;2022-11-15T00:30:24;12.23;;;7.10;;
23390;SDS011;11868;45.606;5.302;2022-11-15T00:32:50;9.80;;;6.72;;
23390;SDS011;11868;45.606;5.302;2022-11-15T00:35:15;8.95;;;7.35;;
23390;SDS011;11868;45.606;5.302;2022-11-15T00:37:41;10.98;;;7.95;;
23390;SDS011;11868;45.606;5.302;2022-11-15T00:40:07;10.35;;;7.97;;
23390;SDS011;11868;45.606;5.302;2022-11-15T00:42:33;12.60;;;8.07;;
23390;SDS011;11868;45.606;5.302;2022-11-15T00:44:59;11.38;;;7.97;;
23390;SDS011;11868;45.606;5.302;2022-11-15T00:47:24;11.13;;;8.10;;
23390;SDS011;11868;45.606;5.302;2022-11-15T00:49:49;9.77;;;7.07;;
23390;SDS011;11868;45.606;5.302;2022-11-15T00:52:15;8.25;;;6.78;;
23390;SDS011;11868;45.606;5.302;2022-11-15T00:54:40;12.10;;;7.03;;
23390;SDS011;11868;45.606;5.302;2022-11-15T00:57:05;10.60;;;7.43;;
23390;SDS011;11868;45.606;5.302;2022-11-15T00:59:31;8.32;;;6.57;;
23390;SDS011;11868;45.606;5.302;2022-11-15T01:01:56;11.13;;;6.68;;
23390;SDS011;11868;45.606;5.302;2022-11-15T01:04:22;10.07;;;7.03;;
23390;SDS011;11868;45.606;5.302;2022-11-15T01:06:47;7.97;;;6.10;;
23390;SDS011;11868;45.606;5.302;2022-11-15T01:09:12;9.68;;;6.35;;
23390;SDS011;11868;45.606;5.302;2022-11-15T01:11:38;8.85;;;6.78;;
23390;SDS011;11868;45.606;5.302;2022-11-15T01:14:04;9.00;;;6.40;;
23390;SDS011;11868;45.606;5.302;2022-11-15T01:16:29;8.82;;;6.65;;
23390;SDS011;11868;45.606;5.302;2022-11-15T01:18:55;9.30;;;7.15;;
23390;SDS011;11868;45.606;5.302;2022-11-15T01:21:20;9.05;;;6.82;;
23390;SDS011;11868;45.606;5.302;2022-11-15T01:23:45;10.25;;;6.75;;
23390;SDS011;11868;45.606;5.302;2022-11-15T01:26:12;9.60;;;7.15;;
23390;SDS011;11868;45.606;5.302;2022-11-15T01:28:39;11.20;;;7.32;;
23390;SDS011;11868;45.606;5.302;2022-11-15T01:31:06;11.10;;;8.20;;
23390;SDS011;11868;45.606;5.302;2022-11-15T01:33:35;15.88;;;7.97;;
23390;SDS011;11868;45.606;5.302;2022-11-15T01:36:05;10.75;;;7.88;;
23390;SDS011;11868;45.606;5.302;2022-11-15T01:38:31;12.05;;;7.75;;
23390;SDS011;11868;45.606;5.302;2022-11-15T01:40:57;10.55;;;6.82;;
23390;SDS011;11868;45.606;5.302;2022-11-15T01:43:23;8.85;;;7.28;;
23390;SDS011;11868;45.606;5.302;2022-11-15T01:45:54;9.02;;;7.13;;
23390;SDS011;11868;45.606;5.302;2022-11-15T01:48:23;12.32;;;7.18;;
23390;SDS011;11868;45.606;5.302;2022-11-15T01:50:51;14.03;;;6.97;;
23390;SDS011;11868;45.606;5.302;2022-11-15T01:53:17;11.77;;;7.10;;
23390;SDS011;11868;45.606;5.302;2022-11-15T01:55:44;10.73;;;7.97;;
23390;SDS011;11868;45.606;5.302;2022-11-15T01:58:10;12.20;;;8.38;;
23390;SDS011;11868;45.606;5.302;2022-11-15T02:00:35;13.82;;;8.63;;
23390;SDS011;11868;45.606;5.302;2022-11-15T02:03:01;12.25;;;7.78;;
23390;SDS011;11868;45.606;5.302;2022-11-15T02:05:27;9.00;;;7.30;;
23390;SDS011;11868;45.606;5.302;2022-11-15T02:07:52;10.48;;;6.47;;
23390;SDS011;11868;45.606;5.302;2022-11-15T02:10:19;8.95;;;6.60;;
23390;SDS011;11868;45.606;5.302;2022-11-15T02:12:46;9.23;;;5.57;;
23390;SDS011;11868;45.606;5.302;2022-11-15T02:15:12;8.18;;;5.63;;
23390;SDS011;11868;45.606;5.302;2022-11-15T02:41:29;5.78;;;4.72;;
23390;SDS011;11868;45.606;5.302;2022-11-15T02:44:06;4.72;;;4.18;;
23390;SDS011;11868;45.606;5.302;2022-11-15T02:49:22;5.63;;;3.80;;
23390;SDS011;11868;45.606;5.302;2022-11-15T02:51:50;6.28;;;3.75;;
23390;SDS011;11868;45.606;5.302;2022-11-15T02:54:23;5.18;;;3.85;;
23390;SDS011;11868;45.606;5.302;2022-11-15T02:56:51;4.45;;;3.75;;
23390;SDS011;11868;45.606;5.302;2022-11-15T03:10:32;7.72;;;4.20;;
23390;SDS011;11868;45.606;5.302;2022-11-15T03:15:51;5.07;;;4.00;;
23390;SDS011;11868;45.606;5.302;2022-11-15T03:18:21;5.13;;;3.83;;
23390;SDS011;11868;45.606;5.302;2022-11-15T03:20:52;6.72;;;4.43;;
23390;SDS011;11868;45.606;5.302;2022-11-15T03:23:17;4.85;;;4.32;;
23390;SDS011;11868;45.606;5.302;2022-11-15T03:25:48;5.93;;;4.45;;
23390;SDS011;11868;45.606;5.302;2022-11-15T03:28:16;5.47;;;4.20;;
23390;SDS011;11868;45.606;5.302;2022-11-15T03:30:45;5.15;;;3.55;;
23390;SDS011;11868;45.606;5.302;2022-11-15T03:33:13;4.60;;;3.80;;
23390;SDS011;11868;45.606;5.302;2022-11-15T03:35:39;4.03;;;3.58;;
23390;SDS011;11868;45.606;5.302;2022-11-15T03:41:03;3.60;;;3.17;;
23390;SDS011;11868;45.606;5.302;2022-11-15T03:43:46;4.97;;;3.30;;
23390;SDS011;11868;45.606;5.302;2022-11-15T03:46:14;4.32;;;3.20;;
23390;SDS011;11868;45.606;5.302;2022-11-15T03:48:48;3.88;;;3.28;;
23390;SDS011;11868;45.606;5.302;2022-11-15T03:51:15;3.92;;;3.15;;
23390;SDS011;11868;45.606;5.302;2022-11-15T03:53:41;5.28;;;3.05;;
23390;SDS011;11868;45.606;5.302;2022-11-15T03:56:07;3.92;;;3.42;;
23390;SDS011;11868;45.606;5.302;2022-11-15T03:58:32;5.15;;;3.30;;
23390;SDS011;11868;45.606;5.302;2022-11-15T04:00:57;6.72;;;3.67;;
23390;SDS011;11868;45.606;5.302;2022-11-15T04:03:24;6.50;;;3.63;;
23390;SDS011;11868;45.606;5.302;2022-11-15T04:05:49;4.63;;;3.80;;
23390;SDS011;11868;45.606;5.302;2022-11-15T04:08:15;5.95;;;3.88;;
23390;SDS011;11868;45.606;5.302;2022-11-15T04:10:40;5.63;;;3.63;;
23390;SDS011;11868;45.606;5.302;2022-11-15T04:13:06;5.30;;;4.03;;
23390;SDS011;11868;45.606;5.302;2022-11-15T04:15:31;4.68;;;3.90;;
23390;SDS011;11868;45.606;5.302;2022-11-15T04:17:57;5.20;;;4.03;;
23390;SDS011;11868;45.606;5.302;2022-11-15T04:20:23;5.05;;;4.13;;
23390;SDS011;11868;45.606;5.302;2022-11-15T04:23:15;4.75;;;4.22;;
23390;SDS011;11868;45.606;5.302;2022-11-15T04:26:07;6.65;;;4.38;;
23390;SDS011;11868;45.606;5.302;2022-11-15T04:28:35;5.82;;;4.35;;
23390;SDS011;11868;45.606;5.302;2022-11-15T04:31:21;4.50;;;4.10;;
23390;SDS011;11868;45.606;5.302;2022-11-15T04:33:47;4.90;;;4.05;;
23390;SDS011;11868;45.606;5.302;2022-11-15T04:36:12;6.38;;;4.30;;
23390;SDS011;11868;45.606;5.302;2022-11-15T04:38:56;8.60;;;4.07;;
23390;SDS011;11868;45.606;5.302;2022-11-15T04:41:22;5.05;;;4.03;;
23390;SDS011;11868;45.606;5.302;2022-11-15T04:43:47;5.20;;;3.92;;
23390;SDS011;11868;45.606;5.302;2022-11-15T04:46:13;5.03;;;3.83;;
23390;SDS011;11868;45.606;5.302;2022-11-15T04:48:38;5.15;;;4.55;;
23390;SDS011;11868;45.606;5.302;2022-11-15T04:51:03;6.95;;;4.63;;
23390;SDS011;11868;45.606;5.302;2022-11-15T04:53:29;6.15;;;4.47;;
23390;SDS011;11868;45.606;5.302;2022-11-15T04:55:54;6.32;;;5.18;;
23390;SDS011;11868;45.606;5.302;2022-11-15T04:58:19;5.68;;;4.65;;
23390;SDS011;11868;45.606;5.302;2022-11-15T05:00:45;6.57;;;4.75;;
23390;SDS011;11868;45.606;5.302;2022-11-15T05:03:10;6.80;;;4.20;;
23390;SDS011;11868;45.606;5.302;2022-11-15T05:05:54;5.22;;;4.57;;
23390;SDS011;11868;45.606;5.302;2022-11-15T05:08:20;7.80;;;4.05;;
23390;SDS011;11868;45.606;5.302;2022-11-15T05:10:45;7.28;;;4.47;;
23390;SDS011;11868;45.606;5.302;2022-11-15T05:13:12;6.03;;;4.78;;
23390;SDS011;11868;45.606;5.302;2022-11-15T05:15:38;4.35;;;3.95;;
23390;SDS011;11868;45.606;5.302;2022-11-15T05:18:04;7.70;;;4.60;;
23390;SDS011;11868;45.606;5.302;2022-11-15T05:20:29;7.97;;;4.68;;
23390;SDS011;11868;45.606;5.302;2022-11-15T05:22:54;4.57;;;4.13;;
23390;SDS011;11868;45.606;5.302;2022-11-15T05:25:22;5.55;;;4.35;;
23390;SDS011;11868;45.606;5.302;2022-11-15T05:27:48;5.68;;;3.97;;
23390;SDS011;11868;45.606;5.302;2022-11-15T05:30:14;6.13;;;4.18;;
23390;SDS011;11868;45.606;5.302;2022-11-15T05:32:40;4.30;;;3.90;;
23390;SDS011;11868;45.606;5.302;2022-11-15T05:35:05;5.10;;;3.90;;
23390;SDS011;11868;45.606;5.302;2022-11-15T05:37:32;4.75;;;4.10;;
23390;SDS011;11868;45.606;5.302;2022-11-15T05:39:57;5.45;;;4.20;;
23390;SDS011;11868;45.606;5.302;2022-11-15T05:42:23;5.30;;;4.35;;
23390;SDS011;11868;45.606;5.302;2022-11-15T05:44:49;6.32;;;4.15;;
23390;SDS011;11868;45.606;5.302;2022-11-15T05:47:19;6.22;;;4.57;;
23390;SDS011;11868;45.606;5.302;2022-11-15T05:49:47;4.78;;;3.90;;
23390;SDS011;11868;45.606;5.302;2022-11-15T05:52:13;7.35;;;4.15;;
23390;SDS011;11868;45.606;5.302;2022-11-15T05:54:40;4.75;;;4.05;;
23390;SDS011;11868;45.606;5.302;2022-11-15T05:57:06;6.13;;;4.35;;
23390;SDS011;11868;45.606;5.302;2022-11-15T05:59:31;5.35;;;3.95;;
23390;SDS011;11868;45.606;5.302;2022-11-15T06:01:57;6.03;;;3.97;;
23390;SDS011;11868;45.606;5.302;2022-11-15T06:04:23;6.05;;;4.25;;
23390;SDS011;11868;45.606;5.302;2022-11-15T06:06:48;5.72;;;3.78;;
23390;SDS011;11868;45.606;5.302;2022-11-15T06:09:14;10.10;;;3.75;;
23390;SDS011;11868;45.606;5.302;2022-11-15T06:11:39;4.85;;;3.40;;
23390;SDS011;11868;45.606;5.302;2022-11-15T06:14:05;5.70;;;3.63;;
23390;SDS011;11868;45.606;5.302;2022-11-15T06:16:30;4.00;;;3.38;;
23390;SDS011;11868;45.606;5.302;2022-11-15T06:18:55;3.83;;;3.20;;
23390;SDS011;11868;45.606;5.302;2022-11-15T06:21:21;6.65;;;3.60;;
23390;SDS011;11868;45.606;5.302;2022-11-15T06:23:46;7.43;;;3.95;;
23390;SDS011;11868;45.606;5.302;2022-11-15T06:26:12;4.53;;;3.92;;
23390;SDS011;11868;45.606;5.302;2022-11-15T06:28:37;4.82;;;4.20;;
23390;SDS011;11868;45.606;5.302;2022-11-15T06:31:03;7.80;;;5.95;;
23390;SDS011;11868;45.606;5.302;2022-11-15T06:36:14;9.00;;;5.32;;
23390;SDS011;11868;45.606;5.302;2022-11-15T06:38:41;5.28;;;4.78;;
23390;SDS011;11868;45.606;5.302;2022-11-15T06:41:08;6.65;;;5.05;;
23390;SDS011;11868;45.606;5.302;2022-11-15T06:43:34;8.55;;;5.50;;
23390;SDS011;11868;45.606;5.302;2022-11-15T06:46:00;8.98;;;5.05;;
23390;SDS011;11868;45.606;5.302;2022-11-15T06:48:27;17.42;;;12.73;;
23390;SDS011;11868;45.606;5.302;2022-11-15T06:50:53;10.38;;;8.50;;
23390;SDS011;11868;45.606;5.302;2022-11-15T06:53:19;10.23;;;6.28;;
23390;SDS011;11868;45.606;5.302;2022-11-15T06:55:45;7.38;;;5.30;;
23390;SDS011;11868;45.606;5.302;2022-11-15T06:58:10;6.40;;;4.60;;
23390;SDS011;11868;45.606;5.302;2022-11-15T07:00:36;5.47;;;4.47;;
23390;SDS011;11868;45.606;5.302;2022-11-15T07:03:01;5.32;;;4.38;;
23390;SDS011;11868;45.606;5.302;2022-11-15T07:05:27;5.18;;;4.60;;
23390;SDS011;11868;45.606;5.302;2022-11-15T07:07:52;6.30;;;4.68;;
23390;SDS011;11868;45.606;5.302;2022-11-15T07:10:19;5.10;;;4.30;;
23390;SDS011;11868;45.606;5.302;2022-11-15T07:12:48;6.70;;;4.30;;
23390;SDS011;11868;45.606;5.302;2022-11-15T07:15:14;5.78;;;4.28;;
23390;SDS011;11868;45.606;5.302;2022-11-15T07:17:40;9.02;;;4.80;;
23390;SDS011;11868;45.606;5.302;2022-11-15T07:20:06;6.07;;;4.90;;
23390;SDS011;11868;45.606;5.302;2022-11-15T07:22:32;8.63;;;5.47;;
23390;SDS011;11868;45.606;5.302;2022-11-15T07:24:57;7.95;;;5.72;;
23390;SDS011;11868;45.606;5.302;2022-11-15T07:27:23;8.02;;;5.10;;
23390;SDS011;11868;45.606;5.302;2022-11-15T07:29:48;7.88;;;5.68;;
23390;SDS011;11868;45.606;5.302;2022-11-15T07:32:13;8.57;;;6.15;;
23390;SDS011;11868;45.606;5.302;2022-11-15T07:34:39;7.97;;;5.10;;
23390;SDS011;11868;45.606;5.302;2022-11-15T07:37:04;6.88;;;5.40;;
23390;SDS011;11868;45.606;5.302;2022-11-15T07:39:29;7.15;;;5.10;;
23390;SDS011;11868;45.606;5.302;2022-11-15T07:41:55;7.18;;;5.30;;
23390;SDS011;11868;45.606;5.302;2022-11-15T07:44:40;6.72;;;4.75;;
23390;SDS011;11868;45.606;5.302;2022-11-15T07:47:05;7.00;;;4.60;;
23390;SDS011;11868;45.606;5.302;2022-11-15T07:49:31;5.38;;;4.05;;
23390;SDS011;11868;45.606;5.302;2022-11-15T07:51:56;5.35;;;4.30;;
23390;SDS011;11868;45.606;5.302;2022-11-15T07:54:21;4.53;;;3.92;;
23390;SDS011;11868;45.606;5.302;2022-11-15T07:56:47;9.57;;;4.90;;
23390;SDS011;11868;45.606;5.302;2022-11-15T07:59:12;7.95;;;4.55;;
23390;SDS011;11868;45.606;5.302;2022-11-15T08:01:37;5.07;;;4.15;;
23390;SDS011;11868;45.606;5.302;2022-11-15T08:04:03;5.75;;;4.47;;
23390;SDS011;11868;45.606;5.302;2022-11-15T08:06:28;6.90;;;3.90;;
23390;SDS011;11868;45.606;5.302;2022-11-15T08:08:54;8.60;;;4.43;;
23390;SDS011;11868;45.606;5.302;2022-11-15T08:11:19;9.15;;;4.13;;
23390;SDS011;11868;45.606;5.302;2022-11-15T08:13:44;6.00;;;3.80;;
23390;SDS011;11868;45.606;5.302;2022-11-15T08:16:10;6.30;;;4.05;;
23390;SDS011;11868;45.606;5.302;2022-11-15T08:18:36;10.13;;;4.90;;
23390;SDS011;11868;45.606;5.302;2022-11-15T08:21:02;6.68;;;3.72;;
23390;SDS011;11868;45.606;5.302;2022-11-15T08:23:28;6.35;;;3.55;;
23390;SDS011;11868;45.606;5.302;2022-11-15T08:25:58;6.40;;;3.72;;
23390;SDS011;11868;45.606;5.302;2022-11-15T08:28:26;3.63;;;3.03;;
23390;SDS011;11868;45.606;5.302;2022-11-15T08:30:52;3.50;;;3.20;;
23390;SDS011;11868;45.606;5.302;2022-11-15T08:33:18;7.13;;;3.70;;
23390;SDS011;11868;45.606;5.302;2022-11-15T08:35:43;4.25;;;2.95;;
23390;SDS011;11868;45.606;5.302;2022-11-15T08:38:09;4.82;;;3.20;;
23390;SDS011;11868;45.606;5.302;2022-11-15T08:40:35;7.97;;;3.20;;
23390;SDS011;11868;45.606;5.302;2022-11-15T08:43:00;11.27;;;4.10;;
23390;SDS011;11868;45.606;5.302;2022-11-15T08:45:27;7.63;;;3.42;;
23390;SDS011;11868;45.606;5.302;2022-11-15T08:47:56;4.07;;;3.50;;
23390;SDS011;11868;45.606;5.302;2022-11-15T08:50:21;6.53;;;3.90;;
23390;SDS011;11868;45.606;5.302;2022-11-15T08:52:46;4.60;;;3.80;;
23390;SDS011;11868;45.606;5.302;2022-11-15T08:55:15;8.85;;;4.40;;
23390;SDS011;11868;45.606;5.302;2022-11-15T08:57:40;8.65;;;4.70;;
23390;SDS011;11868;45.606;5.302;2022-11-15T09:00:05;8.25;;;5.65;;
23390;SDS011;11868;45.606;5.302;2022-11-15T09:02:31;9.80;;;7.00;;
23390;SDS011;11868;45.606;5.302;2022-11-15T09:04:57;9.50;;;5.35;;
23390;SDS011;11868;45.606;5.302;2022-11-15T09:07:22;8.48;;;5.30;;
23390;SDS011;11868;45.606;5.302;2022-11-15T09:09:47;9.57;;;5.15;;
23390;SDS011;11868;45.606;5.302;2022-11-15T09:12:13;8.27;;;5.05;;
23390;SDS011;11868;45.606;5.302;2022-11-15T09:14:38;9.77;;;4.68;;
23390;SDS011;11868;45.606;5.302;2022-11-15T09:17:06;18.50;;;5.65;;
23390;SDS011;11868;45.606;5.302;2022-11-15T09:19:33;9.15;;;5.35;;
23390;SDS011;11868;45.606;5.302;2022-11-15T09:21:58;8.10;;;5.57;;
23390;SDS011;11868;45.606;5.302;2022-11-15T09:24:24;5.65;;;5.05;;
23390;SDS011;11868;45.606;5.302;2022-11-15T09:26:50;8.35;;;5.45;;
23390;SDS011;11868;45.606;5.302;2022-11-15T09:29:16;12.50;;;5.85;;
23390;SDS011;11868;45.606;5.302;2022-11-15T09:31:42;7.28;;;4.90;;
23390;SDS011;11868;45.606;5.302;2022-11-15T09:34:07;16.52;;;6.28;;
23390;SDS011;11868;45.606;5.302;2022-11-15T09:36:33;16.58;;;5.07;;
23390;SDS011;11868;45.606;5.302;2022-11-15T09:38:58;11.27;;;5.35;;
23390;SDS011;11868;45.606;5.302;2022-11-15T09:49:20;6.82;;;3.30;;
23390;SDS011;11868;45.606;5.302;2022-11-15T09:51:47;4.35;;;3.20;;
23390;SDS011;11868;45.606;5.302;2022-11-15T09:56:49;5.78;;;2.72;;
23390;SDS011;11868;45.606;5.302;2022-11-15T09:59:25;4.90;;;2.63;;
23390;SDS011;11868;45.606;5.302;2022-11-15T10:04:30;4.18;;;2.75;;
23390;SDS011;11868;45.606;5.302;2022-11-15T10:07:04;5.18;;;2.83;;
23390;SDS011;11868;45.606;5.302;2022-11-15T10:12:06;3.40;;;2.40;;
23390;SDS011;11868;45.606;5.302;2022-11-15T10:14:32;4.72;;;2.90;;
23390;SDS011;11868;45.606;5.302;2022-11-15T10:27:43;2.97;;;2.15;;
23390;SDS011;11868;45.606;5.302;2022-11-15T10:30:20;3.97;;;1.88;;
23390;SDS011;11868;45.606;5.302;2022-11-15T10:32:45;4.65;;;2.22;;
23390;SDS011;11868;45.606;5.302;2022-11-15T10:37:44;5.50;;;2.75;;
23390;SDS011;11868;45.606;5.302;2022-11-15T10:40:20;6.53;;;4.03;;
23390;SDS011;11868;45.606;5.302;2022-11-15T10:42:47;5.93;;;3.50;;
23390;SDS011;11868;45.606;5.302;2022-11-15T10:45:24;4.20;;;2.88;;
23390;SDS011;11868;45.606;5.302;2022-11-15T10:47:50;6.35;;;2.80;;
23390;SDS011;11868;45.606;5.302;2022-11-15T10:50:29;5.53;;;2.60;;
23390;SDS011;11868;45.606;5.302;2022-11-15T10:52:56;4.25;;;2.30;;
23390;SDS011;11868;45.606;5.302;2022-11-15T10:55:28;4.40;;;2.43;;
23390;SDS011;11868;45.606;5.302;2022-11-15T10:58:00;3.78;;;2.58;;
23390;SDS011;11868;45.606;5.302;2022-11-15T11:00:30;4.10;;;2.78;;
23390;SDS011;11868;45.606;5.302;2022-11-15T11:03:04;7.22;;;3.63;;
23390;SDS011;11868;45.606;5.302;2022-11-15T11:05:33;5.53;;;2.85;;
23390;SDS011;11868;45.606;5.302;2022-11-15T11:10:36;9.98;;;3.00;;
23390;SDS011;11868;45.606;5.302;2022-11-15T11:13:20;6.47;;;2.58;;
23390;SDS011;11868;45.606;5.302;2022-11-15T11:15:50;4.18;;;2.42;;
23390;SDS011;11868;45.606;5.302;2022-11-15T11:18:27;3.83;;;2.20;;
23390;SDS011;11868;45.606;5.302;2022-11-15T11:21:18;5.03;;;3.45;;
23390;SDS011;11868;45.606;5.302;2022-11-15T11:23:52;4.40;;;2.90;;
23390;SDS011;11868;45.606;5.302;2022-11-15T11:26:27;5.53;;;3.30;;
23390;SDS011;11868;45.606;5.302;2022-11-15T11:31:32;7.32;;;2.97;;
23390;SDS011;11868;45.606;5.302;2022-11-15T11:36:56;5.65;;;4.20;;
23390;SDS011;11868;45.606;5.302;2022-11-15T11:42:04;4.72;;;2.97;;
23390;SDS011;11868;45.606;5.302;2022-11-15T11:49:58;5.25;;;2.63;;
23390;SDS011;11868;45.606;5.302;2022-11-15T11:55:16;3.80;;;2.63;;
23390;SDS011;11868;45.606;5.302;2022-11-15T11:57:55;6.10;;;3.30;;
23390;SDS011;11868;45.606;5.302;2022-11-15T12:08:09;7.82;;;4.50;;
23390;SDS011;11868;45.606;5.302;2022-11-15T12:10:39;5.80;;;3.90;;
23390;SDS011;11868;45.606;5.302;2022-11-15T12:13:09;7.38;;;5.47;;
23390;SDS011;11868;45.606;5.302;2022-11-15T12:18:08;3.85;;;3.10;;
23390;SDS011;11868;45.606;5.302;2022-11-15T12:20:39;6.32;;;3.92;;
23390;SDS011;11868;45.606;5.302;2022-11-15T12:23:07;8.90;;;3.80;;
23390;SDS011;11868;45.606;5.302;2022-11-15T12:30:54;5.43;;;3.08;;
23390;SDS011;11868;45.606;5.302;2022-11-15T12:33:29;7.43;;;3.50;;
23390;SDS011;11868;45.606;5.302;2022-11-15T12:36:03;6.05;;;2.72;;
23390;SDS011;11868;45.606;5.302;2022-11-15T12:38:49;5.28;;;2.88;;
23390;SDS011;11868;45.606;5.302;2022-11-15T12:41:16;4.95;;;3.10;;
23390;SDS011;11868;45.606;5.302;2022-11-15T12:43:43;3.88;;;2.97;;
23390;SDS011;11868;45.606;5.302;2022-11-15T12:51:11;5.18;;;3.35;;
23390;SDS011;11868;45.606;5.302;2022-11-15T12:53:37;5.13;;;3.00;;
23390;SDS011;11868;45.606;5.302;2022-11-15T13:06:48;6.30;;;3.90;;
23390;SDS011;11868;45.606;5.302;2022-11-15T13:11:59;5.40;;;3.10;;
23390;SDS011;11868;45.606;5.302;2022-11-15T13:14:39;4.53;;;2.95;;
23390;SDS011;11868;45.606;5.302;2022-11-15T13:19:52;6.05;;;3.35;;
23390;SDS011;11868;45.606;5.302;2022-11-15T13:22:22;6.85;;;3.25;;
23390;SDS011;11868;45.606;5.302;2022-11-15T13:25:14;5.60;;;3.58;;
23390;SDS011;11868;45.606;5.302;2022-11-15T13:27:41;6.13;;;4.28;;
23390;SDS011;11868;45.606;5.302;2022-11-15T13:30:23;5.40;;;3.88;;
23390;SDS011;11868;45.606;5.302;2022-11-15T13:32:50;9.48;;;3.97;;
23390;SDS011;11868;45.606;5.302;2022-11-15T13:35:26;9.55;;;3.42;;
23390;SDS011;11868;45.606;5.302;2022-11-15T13:37:53;4.70;;;2.92;;
23390;SDS011;11868;45.606;5.302;2022-11-15T13:40:24;6.20;;;3.38;;
23390;SDS011;11868;45.606;5.302;2022-11-15T13:42:52;12.57;;;3.53;;
23390;SDS011;11868;45.606;5.302;2022-11-15T13:45:18;7.65;;;2.80;;
23390;SDS011;11868;45.606;5.302;2022-11-15T13:47:44;4.15;;;3.00;;
23390;SDS011;11868;45.606;5.302;2022-11-15T13:50:10;4.28;;;2.65;;
23390;SDS011;11868;45.606;5.302;2022-11-15T13:52:37;4.95;;;2.60;;
23390;SDS011;11868;45.606;5.302;2022-11-15T13:55:13;5.20;;;3.15;;
23390;SDS011;11868;45.606;5.302;2022-11-15T14:00:24;5.32;;;2.97;;
23390;SDS011;11868;45.606;5.302;2022-11-15T14:02:54;8.10;;;3.33;;
23390;SDS011;11868;45.606;5.302;2022-11-15T14:05:21;17.55;;;4.00;;
23390;SDS011;11868;45.606;5.302;2022-11-15T14:10:37;4.63;;;2.95;;
23390;SDS011;11868;45.606;5.302;2022-11-15T14:13:03;6.55;;;2.90;;
23390;SDS011;11868;45.606;5.302;2022-11-15T14:15:35;4.22;;;2.72;;
23390;SDS011;11868;45.606;5.302;2022-11-15T14:18:02;10.95;;;3.33;;
23390;SDS011;11868;45.606;5.302;2022-11-15T14:20:30;5.57;;;3.00;;
23390;SDS011;11868;45.606;5.302;2022-11-15T14:23:04;5.22;;;2.72;;
23390;SDS011;11868;45.606;5.302;2022-11-15T14:25:54;9.73;;;3.20;;
23390;SDS011;11868;45.606;5.302;2022-11-15T14:30:49;6.72;;;2.97;;
23390;SDS011;11868;45.606;5.302;2022-11-15T14:33:21;5.10;;;3.40;;
23390;SDS011;11868;45.606;5.302;2022-11-15T14:35:48;6.07;;;3.38;;
23390;SDS011;11868;45.606;5.302;2022-11-15T14:38:14;6.60;;;3.50;;
23390;SDS011;11868;45.606;5.302;2022-11-15T14:40:40;4.65;;;2.95;;
23390;SDS011;11868;45.606;5.302;2022-11-15T14:43:07;6.57;;;3.28;;
23390;SDS011;11868;45.606;5.302;2022-11-15T14:45:34;4.40;;;3.20;;
23390;SDS011;11868;45.606;5.302;2022-11-15T14:47:59;4.45;;;3.00;;
23390;SDS011;11868;45.606;5.302;2022-11-15T14:50:25;5.80;;;3.38;;
23390;SDS011;11868;45.606;5.302;2022-11-15T14:52:51;5.20;;;3.40;;
23390;SDS011;11868;45.606;5.302;2022-11-15T14:55:26;3.95;;;2.78;;
23390;SDS011;11868;45.606;5.302;2022-11-15T14:57:54;4.20;;;3.08;;
23390;SDS011;11868;45.606;5.302;2022-11-15T15:00:20;3.53;;;2.80;;
23390;SDS011;11868;45.606;5.302;2022-11-15T15:02:47;3.80;;;3.17;;
23390;SDS011;11868;45.606;5.302;2022-11-15T15:05:17;7.13;;;3.13;;
23390;SDS011;11868;45.606;5.302;2022-11-15T15:07:47;8.40;;;3.70;;
23390;SDS011;11868;45.606;5.302;2022-11-15T15:10:13;5.70;;;3.80;;
23390;SDS011;11868;45.606;5.302;2022-11-15T15:12:40;5.25;;;3.28;;
23390;SDS011;11868;45.606;5.302;2022-11-15T15:15:06;5.85;;;3.30;;
23390;SDS011;11868;45.606;5.302;2022-11-15T15:17:36;10.07;;;3.30;;
23390;SDS011;11868;45.606;5.302;2022-11-15T15:20:01;9.43;;;4.60;;
23390;SDS011;11868;45.606;5.302;2022-11-15T15:22:26;8.95;;;5.85;;
23390;SDS011;11868;45.606;5.302;2022-11-15T15:24:54;14.45;;;7.68;;
23390;SDS011;11868;45.606;5.302;2022-11-15T15:27:19;13.10;;;7.43;;
23390;SDS011;11868;45.606;5.302;2022-11-15T15:29:44;22.95;;;11.65;;
23390;SDS011;11868;45.606;5.302;2022-11-15T15:32:10;19.42;;;11.65;;
23390;SDS011;11868;45.606;5.302;2022-11-15T15:34:35;32.30;;;21.80;;
23390;SDS011;11868;45.606;5.302;2022-11-15T15:39:45;38.72;;;23.38;;
23390;SDS011;11868;45.606;5.302;2022-11-15T15:42:10;37.78;;;21.75;;
23390;SDS011;11868;45.606;5.302;2022-11-15T15:44:35;32.25;;;19.20;;
23390;SDS011;11868;45.606;5.302;2022-11-15T15:47:01;26.20;;;15.05;;
23390;SDS011;11868;45.606;5.302;2022-11-15T15:49:26;20.88;;;12.18;;
23390;SDS011;11868;45.606;5.302;2022-11-15T15:51:51;10.95;;;7.30;;
23390;SDS011;11868;45.606;5.302;2022-11-15T15:54:17;11.23;;;6.50;;
23390;SDS011;11868;45.606;5.302;2022-11-15T15:56:42;11.18;;;6.28;;
23390;SDS011;11868;45.606;5.302;2022-11-15T15:59:08;15.38;;;6.45;;
23390;SDS011;11868;45.606;5.302;2022-11-15T16:01:33;9.07;;;5.20;;
23390;SDS011;11868;45.606;5.302;2022-11-15T16:03:58;9.23;;;5.30;;
23390;SDS011;11868;45.606;5.302;2022-11-15T16:06:42;9.10;;;4.93;;
23390;SDS011;11868;45.606;5.302;2022-11-15T16:09:13;8.90;;;5.38;;
23390;SDS011;11868;45.606;5.302;2022-11-15T16:11:39;10.57;;;8.07;;
23390;SDS011;11868;45.606;5.302;2022-11-15T16:14:06;11.60;;;7.10;;
23390;SDS011;11868;45.606;5.302;2022-11-15T16:16:32;13.13;;;6.57;;
23390;SDS011;11868;45.606;5.302;2022-11-15T16:18:58;14.77;;;9.30;;
23390;SDS011;11868;45.606;5.302;2022-11-15T16:21:25;20.33;;;9.65;;
23390;SDS011;11868;45.606;5.302;2022-11-15T16:23:51;14.82;;;10.65;;
23390;SDS011;11868;45.606;5.302;2022-11-15T16:26:20;15.30;;;11.23;;
23390;SDS011;11868;45.606;5.302;2022-11-15T16:28:50;10.48;;;7.65;;
23390;SDS011;11868;45.606;5.302;2022-11-15T16:31:15;16.98;;;15.18;;
23390;SDS011;11868;45.606;5.302;2022-11-15T16:33:43;9.35;;;8.10;;
23390;SDS011;11868;45.606;5.302;2022-11-15T16:36:18;16.20;;;11.07;;
23390;SDS011;11868;45.606;5.302;2022-11-15T16:38:45;18.05;;;10.55;;
23390;SDS011;11868;45.606;5.302;2022-11-15T16:41:11;18.08;;;14.13;;
23390;SDS011;11868;45.606;5.302;2022-11-15T16:43:36;7.10;;;5.10;;
23390;SDS011;11868;45.606;5.302;2022-11-15T16:46:06;11.63;;;4.53;;
23390;SDS011;11868;45.606;5.302;2022-11-15T16:48:33;8.90;;;7.55;;
23390;SDS011;11868;45.606;5.302;2022-11-15T16:50:59;6.60;;;4.80;;
23390;SDS011;11868;45.606;5.302;2022-11-15T16:53:25;12.00;;;8.88;;
23390;SDS011;11868;45.606;5.302;2022-11-15T16:55:51;9.73;;;7.60;;
23390;SDS011;11868;45.606;5.302;2022-11-15T16:58:18;9.82;;;5.63;;
23390;SDS011;11868;45.606;5.302;2022-11-15T17:00:43;11.95;;;7.38;;
23390;SDS011;11868;45.606;5.302;2022-11-15T17:03:08;13.95;;;8.60;;
23390;SDS011;11868;45.606;5.302;2022-11-15T17:05:34;12.07;;;8.82;;
23390;SDS011;11868;45.606;5.302;2022-11-15T17:07:59;7.78;;;6.28;;
23390;SDS011;11868;45.606;5.302;2022-11-15T17:10:25;12.55;;;6.22;;
23390;SDS011;11868;45.606;5.302;2022-11-15T17:12:51;10.02;;;8.18;;